WAT3630 SAEZ-SASA
Flight info
| Callsign | WAT3630 |
|---|---|
| Flight time | 1h 49m |
| Altitude | 34000 |
| Route | BIVAM1E BIVAM UW8 ERE UT672 DADMI UT677 ILPAR ILPAR2M |
| Aircraft | A21N/M-SDE3FGHIRWY/LB1 |
Departure
| Time | 2026-04-27 23:23 |
|---|---|
| Airport | Ezeiza International Airport - Ministro Pistarini (SAEZ) |
Arrival
| Time | 2026-04-28 01:12 |
|---|---|
| Airport | Martín Miguel de Güemes International Airport (SASA) |
| Time | Latitude | Longitude | Altitude | Speed | Heading |
|---|---|---|---|---|---|
| 2026-04-27 22:52 | -34.81502 | -58.53854 | 87 ft | 0 kts | 346° |
| 2026-04-27 23:05 | -34.81506 | -58.53853 | 87 ft | 0 kts | 346° |
| 2026-04-27 23:06 | -34.81518 | -58.53848 | 87 ft | 2 kts | 328° |
| 2026-04-27 23:06 | -34.81530 | -58.53836 | 87 ft | 2 kts | 308° |
| 2026-04-27 23:06 | -34.81537 | -58.53821 | 87 ft | 2 kts | 287° |
| 2026-04-27 23:06 | -34.81540 | -58.53803 | 86 ft | 2 kts | 267° |
| 2026-04-27 23:07 | -34.81536 | -58.53785 | 86 ft | 2 kts | 246° |
| 2026-04-27 23:07 | -34.81531 | -58.53772 | 86 ft | 0 kts | 230° |
| 2026-04-27 23:07 | -34.81526 | -58.53766 | 86 ft | 0 kts | 227° |
| 2026-04-27 23:09 | -34.81527 | -58.53768 | 86 ft | 0 kts | 228° |
| 2026-04-27 23:09 | -34.81533 | -58.53775 | 86 ft | 2 kts | 226° |
| 2026-04-27 23:09 | -34.81556 | -58.53787 | 86 ft | 5 kts | 187° |
| 2026-04-27 23:10 | -34.81612 | -58.53781 | 85 ft | 10 kts | 161° |
| 2026-04-27 23:10 | -34.81689 | -58.53748 | 82 ft | 13 kts | 156° |
| 2026-04-27 23:10 | -34.81779 | -58.53699 | 80 ft | 15 kts | 156° |
| 2026-04-27 23:10 | -34.81885 | -58.53643 | 76 ft | 17 kts | 155° |
| 2026-04-27 23:11 | -34.81947 | -58.53607 | 74 ft | 0 kts | 155° |
| 2026-04-27 23:11 | -34.81952 | -58.53605 | 74 ft | 2 kts | 155° |
| 2026-04-27 23:12 | -34.81976 | -58.53591 | 73 ft | 5 kts | 155° |
| 2026-04-27 23:12 | -34.82021 | -58.53566 | 73 ft | 8 kts | 155° |
| 2026-04-27 23:12 | -34.82075 | -58.53536 | 72 ft | 0 kts | 155° |
| 2026-04-27 23:17 | -34.82084 | -58.53531 | 72 ft | 2 kts | 155° |
| 2026-04-27 23:17 | -34.82105 | -58.53519 | 72 ft | 4 kts | 155° |
| 2026-04-27 23:17 | -34.82138 | -58.53500 | 71 ft | 6 kts | 155° |
| 2026-04-27 23:17 | -34.82182 | -58.53476 | 71 ft | 7 kts | 155° |
| 2026-04-27 23:18 | -34.82231 | -58.53424 | 71 ft | 11 kts | 129° |
| 2026-04-27 23:18 | -34.82267 | -58.53319 | 71 ft | 15 kts | 102° |
| 2026-04-27 23:18 | -34.82293 | -58.53175 | 71 ft | 20 kts | 102° |
| 2026-04-27 23:18 | -34.82329 | -58.52982 | 71 ft | 25 kts | 99° |
| 2026-04-27 23:19 | -34.82214 | -58.52911 | 70 ft | 23 kts | 341° |
| 2026-04-27 23:19 | -34.82066 | -58.52927 | 68 ft | 21 kts | 52° |
| 2026-04-27 23:19 | -34.82080 | -58.52755 | 68 ft | 23 kts | 98° |
| 2026-04-27 23:19 | -34.82119 | -58.52533 | 67 ft | 29 kts | 103° |
| 2026-04-27 23:20 | -34.82170 | -58.52282 | 68 ft | 30 kts | 104° |
| 2026-04-27 23:20 | -34.82220 | -58.52040 | 68 ft | 28 kts | 103° |
| 2026-04-27 23:20 | -34.82263 | -58.51831 | 64 ft | 20 kts | 106° |
| 2026-04-27 23:20 | -34.82336 | -58.51783 | 64 ft | 3 kts | 190° |
| 2026-04-27 23:21 | -34.82370 | -58.51791 | 64 ft | 17 kts | 191° |
| 2026-04-27 23:22 | -34.82499 | -58.51865 | 65 ft | 20 kts | 239° |
| 2026-04-27 23:22 | -34.82464 | -58.52242 | 69 ft | 82 kts | 282° |
| 2026-04-27 23:22 | -34.82288 | -58.53224 | 72 ft | 150 kts | 282° |
| 2026-04-27 23:22 | -34.82044 | -58.54583 | 463 ft | 172 kts | 281° |
| 2026-04-27 23:23 | -34.81789 | -58.55987 | 1248 ft | 172 kts | 281° |
| 2026-04-27 23:23 | -34.81541 | -58.57365 | 2094 ft | 171 kts | 280° |
| 2026-04-27 23:23 | -34.81282 | -58.58840 | 2636 ft | 184 kts | 280° |
| 2026-04-27 23:23 | -34.81115 | -58.60418 | 3154 ft | 198 kts | 266° |
| 2026-04-27 23:24 | -34.81236 | -58.62162 | 3629 ft | 216 kts | 272° |
| 2026-04-27 23:24 | -34.80660 | -58.63926 | 3974 ft | 244 kts | 311° |
| 2026-04-27 23:24 | -34.79157 | -58.64970 | 4560 ft | 264 kts | 347° |
| 2026-04-27 23:24 | -34.77309 | -58.64991 | 5437 ft | 271 kts | 1° |
| 2026-04-27 23:25 | -34.75415 | -58.65005 | 6317 ft | 274 kts | 353° |
| 2026-04-27 23:25 | -34.73530 | -58.65274 | 7156 ft | 277 kts | 347° |
| 2026-04-27 23:25 | -34.71705 | -58.66021 | 7961 ft | 277 kts | 329° |
| 2026-04-27 23:25 | -34.70031 | -58.67175 | 8774 ft | 280 kts | 325° |
| 2026-04-27 23:26 | -34.68373 | -58.68400 | 9560 ft | 285 kts | 324° |
| 2026-04-27 23:26 | -34.66663 | -58.69649 | 10357 ft | 289 kts | 324° |
| 2026-04-27 23:26 | -34.64911 | -58.70906 | 10900 ft | 303 kts | 324° |
| 2026-04-27 23:26 | -34.63041 | -58.72230 | 11299 ft | 320 kts | 325° |
| 2026-04-27 23:27 | -34.61039 | -58.73628 | 11659 ft | 339 kts | 326° |
| 2026-04-27 23:27 | -34.58949 | -58.75074 | 11987 ft | 356 kts | 326° |
| 2026-04-27 23:27 | -34.56747 | -58.76586 | 12462 ft | 368 kts | 326° |
| 2026-04-27 23:27 | -34.54506 | -58.78115 | 13180 ft | 372 kts | 326° |
| 2026-04-27 23:28 | -34.52266 | -58.79641 | 13907 ft | 374 kts | 326° |
| 2026-04-27 23:28 | -34.49988 | -58.81192 | 14610 ft | 377 kts | 326° |
| 2026-04-27 23:28 | -34.47699 | -58.82749 | 15294 ft | 381 kts | 325° |
| 2026-04-27 23:28 | -34.45382 | -58.84327 | 15959 ft | 384 kts | 325° |
| 2026-04-27 23:29 | -34.43033 | -58.85925 | 16606 ft | 387 kts | 325° |
| 2026-04-27 23:29 | -34.40705 | -58.87508 | 17235 ft | 390 kts | 325° |
| 2026-04-27 23:29 | -34.38336 | -58.89119 | 17849 ft | 392 kts | 324° |
| 2026-04-27 23:29 | -34.35938 | -58.90748 | 18495 ft | 395 kts | 324° |
| 2026-04-27 23:30 | -34.33534 | -58.92381 | 19118 ft | 397 kts | 324° |
| 2026-04-27 23:30 | -34.31145 | -58.94004 | 19695 ft | 400 kts | 324° |
| 2026-04-27 23:30 | -34.28719 | -58.95651 | 20242 ft | 404 kts | 324° |
| 2026-04-27 23:30 | -34.26252 | -58.97322 | 20801 ft | 406 kts | 324° |
| 2026-04-27 23:31 | -34.23774 | -58.99000 | 21319 ft | 409 kts | 324° |
| 2026-04-27 23:31 | -34.21285 | -59.00686 | 21808 ft | 412 kts | 324° |
| 2026-04-27 23:31 | -34.18790 | -59.02373 | 22318 ft | 414 kts | 324° |
| 2026-04-27 23:31 | -34.16259 | -59.04083 | 22807 ft | 417 kts | 324° |
| 2026-04-27 23:32 | -34.13741 | -59.05784 | 23297 ft | 419 kts | 324° |
| 2026-04-27 23:32 | -34.11172 | -59.07517 | 23791 ft | 420 kts | 324° |
| 2026-04-27 23:32 | -34.08651 | -59.09216 | 24236 ft | 423 kts | 324° |
| 2026-04-27 23:32 | -34.06044 | -59.10971 | 24692 ft | 425 kts | 324° |
| 2026-04-27 23:33 | -34.03465 | -59.12709 | 25115 ft | 427 kts | 324° |
| 2026-04-27 23:33 | -34.00892 | -59.14441 | 25529 ft | 430 kts | 324° |
| 2026-04-27 23:33 | -33.98266 | -59.16208 | 25911 ft | 432 kts | 324° |
| 2026-04-27 23:33 | -33.95651 | -59.17964 | 26307 ft | 434 kts | 324° |
| 2026-04-27 23:34 | -33.92977 | -59.19761 | 26679 ft | 436 kts | 324° |
| 2026-04-27 23:34 | -33.90336 | -59.21532 | 27104 ft | 437 kts | 324° |
| 2026-04-27 23:34 | -33.87705 | -59.23294 | 27605 ft | 435 kts | 324° |
| 2026-04-27 23:34 | -33.85070 | -59.25057 | 28147 ft | 432 kts | 324° |
| 2026-04-27 23:35 | -33.82422 | -59.26828 | 28636 ft | 431 kts | 324° |
| 2026-04-27 23:35 | -33.79823 | -59.28566 | 29092 ft | 429 kts | 323° |
| 2026-04-27 23:35 | -33.77208 | -59.30313 | 29551 ft | 428 kts | 323° |
| 2026-04-27 23:35 | -33.74628 | -59.32038 | 29982 ft | 427 kts | 323° |
| 2026-04-27 23:36 | -33.72059 | -59.33755 | 30409 ft | 426 kts | 323° |
| 2026-04-27 23:36 | -33.69475 | -59.35477 | 30857 ft | 424 kts | 323° |
| 2026-04-27 23:36 | -33.66889 | -59.37201 | 31263 ft | 423 kts | 323° |
| 2026-04-27 23:36 | -33.64312 | -59.38918 | 31649 ft | 422 kts | 323° |
| 2026-04-27 23:37 | -33.61760 | -59.40618 | 32042 ft | 421 kts | 323° |
| 2026-04-27 23:37 | -33.59225 | -59.42305 | 32423 ft | 420 kts | 323° |
| 2026-04-27 23:37 | -33.56662 | -59.44011 | 32721 ft | 420 kts | 323° |
| 2026-04-27 23:37 | -33.54118 | -59.45703 | 32996 ft | 421 kts | 323° |
| 2026-04-27 23:38 | -33.51553 | -59.47407 | 33251 ft | 422 kts | 323° |
| 2026-04-27 23:38 | -33.48987 | -59.49112 | 33492 ft | 423 kts | 323° |
| 2026-04-27 23:38 | -33.46418 | -59.50817 | 33726 ft | 424 kts | 322° |
| 2026-04-27 23:38 | -33.43824 | -59.52537 | 33940 ft | 425 kts | 323° |
| 2026-04-27 23:39 | -33.41235 | -59.54252 | 34084 ft | 425 kts | 322° |
| 2026-04-27 23:39 | -33.38665 | -59.55953 | 34085 ft | 425 kts | 323° |
| 2026-04-27 23:39 | -33.33493 | -59.59372 | 34092 ft | 425 kts | 322° |
| 2026-04-27 23:40 | -33.28302 | -59.62799 | 34089 ft | 424 kts | 322° |
| 2026-04-27 23:40 | -33.23163 | -59.66189 | 34094 ft | 425 kts | 323° |
| 2026-04-27 23:41 | -33.17957 | -59.69617 | 34095 ft | 426 kts | 323° |
| 2026-04-27 23:41 | -33.12787 | -59.73017 | 34092 ft | 426 kts | 323° |
| 2026-04-27 23:42 | -33.07583 | -59.76435 | 34093 ft | 426 kts | 323° |
| 2026-04-27 23:42 | -33.02393 | -59.79837 | 34094 ft | 426 kts | 323° |
| 2026-04-27 23:43 | -32.97207 | -59.83234 | 34101 ft | 425 kts | 323° |
| 2026-04-27 23:43 | -32.92039 | -59.86612 | 34095 ft | 425 kts | 323° |
| 2026-04-27 23:44 | -32.86863 | -59.89993 | 34092 ft | 426 kts | 323° |
| 2026-04-27 23:44 | -32.81644 | -59.93399 | 34095 ft | 427 kts | 323° |
| 2026-04-27 23:45 | -32.76438 | -59.96790 | 34100 ft | 427 kts | 323° |
| 2026-04-27 23:45 | -32.71216 | -60.00187 | 34096 ft | 427 kts | 323° |
| 2026-04-27 23:46 | -32.66024 | -60.03559 | 34098 ft | 427 kts | 323° |
| 2026-04-27 23:46 | -32.60841 | -60.06922 | 34096 ft | 427 kts | 323° |
| 2026-04-27 23:47 | -32.55636 | -60.10294 | 34094 ft | 427 kts | 323° |
| 2026-04-27 23:47 | -32.50394 | -60.13686 | 34093 ft | 427 kts | 323° |
| 2026-04-27 23:48 | -32.45191 | -60.17049 | 34097 ft | 428 kts | 323° |
| 2026-04-27 23:48 | -32.39974 | -60.20416 | 34095 ft | 428 kts | 324° |
| 2026-04-27 23:49 | -32.34745 | -60.23785 | 34091 ft | 429 kts | 323° |
| 2026-04-27 23:49 | -32.29470 | -60.27180 | 34090 ft | 430 kts | 324° |
| 2026-04-27 23:50 | -32.24248 | -60.30536 | 34087 ft | 430 kts | 324° |
| 2026-04-27 23:50 | -32.18979 | -60.33917 | 34092 ft | 430 kts | 323° |
| 2026-04-27 23:51 | -32.13741 | -60.37275 | 34092 ft | 429 kts | 323° |
| 2026-04-27 23:51 | -32.08477 | -60.40645 | 34092 ft | 430 kts | 324° |
| 2026-04-27 23:52 | -32.03230 | -60.43999 | 34097 ft | 430 kts | 324° |
| 2026-04-27 23:52 | -31.97962 | -60.47363 | 34100 ft | 430 kts | 324° |
| 2026-04-27 23:53 | -31.92713 | -60.50709 | 34103 ft | 430 kts | 323° |
| 2026-04-27 23:53 | -31.87429 | -60.54077 | 34097 ft | 431 kts | 323° |
| 2026-04-27 23:54 | -31.82188 | -60.57409 | 34105 ft | 431 kts | 324° |
| 2026-04-27 23:54 | -31.76902 | -60.60767 | 34111 ft | 430 kts | 324° |
| 2026-04-27 23:55 | -31.71647 | -60.64101 | 34107 ft | 429 kts | 324° |
| 2026-04-27 23:55 | -31.66393 | -60.67430 | 34101 ft | 430 kts | 324° |
| 2026-04-27 23:56 | -31.61127 | -60.70763 | 34113 ft | 429 kts | 324° |
| 2026-04-27 23:56 | -31.55900 | -60.74064 | 34101 ft | 429 kts | 324° |
| 2026-04-27 23:57 | -31.50648 | -60.77379 | 34102 ft | 430 kts | 325° |
| 2026-04-27 23:57 | -31.45361 | -60.80713 | 34102 ft | 430 kts | 325° |
| 2026-04-27 23:58 | -31.40113 | -60.84015 | 34104 ft | 429 kts | 325° |
| 2026-04-27 23:58 | -31.34843 | -60.87330 | 34108 ft | 429 kts | 325° |
| 2026-04-27 23:59 | -31.29610 | -60.90614 | 34112 ft | 429 kts | 325° |
| 2026-04-27 23:59 | -31.24350 | -60.93914 | 34106 ft | 428 kts | 325° |
| 2026-04-28 00:00 | -31.19096 | -60.97205 | 34108 ft | 426 kts | 325° |
| 2026-04-28 00:00 | -31.13884 | -61.00465 | 34115 ft | 427 kts | 325° |
| 2026-04-28 00:01 | -31.08650 | -61.03737 | 34106 ft | 427 kts | 325° |
| 2026-04-28 00:01 | -31.03427 | -61.07063 | 34107 ft | 425 kts | 323° |
| 2026-04-28 00:02 | -30.98452 | -61.10720 | 34109 ft | 424 kts | 321° |
| 2026-04-28 00:02 | -30.93486 | -61.14420 | 34109 ft | 424 kts | 321° |
| 2026-04-28 00:03 | -30.88498 | -61.18133 | 34103 ft | 424 kts | 321° |
| 2026-04-28 00:03 | -30.83527 | -61.21831 | 34114 ft | 424 kts | 321° |
| 2026-04-28 00:04 | -30.76088 | -61.27358 | 34110 ft | 425 kts | 321° |
| 2026-04-28 00:05 | -30.71081 | -61.31070 | 34115 ft | 425 kts | 321° |
| 2026-04-28 00:05 | -30.66123 | -61.34744 | 34106 ft | 425 kts | 321° |
| 2026-04-28 00:06 | -30.61123 | -61.38443 | 34109 ft | 425 kts | 321° |
| 2026-04-28 00:06 | -30.56140 | -61.42124 | 34117 ft | 425 kts | 321° |
| 2026-04-28 00:07 | -30.51166 | -61.45796 | 34110 ft | 425 kts | 321° |
| 2026-04-28 00:07 | -30.46184 | -61.49470 | 34107 ft | 426 kts | 321° |
| 2026-04-28 00:08 | -30.41189 | -61.53147 | 34100 ft | 425 kts | 321° |
| 2026-04-28 00:08 | -30.36182 | -61.56828 | 34099 ft | 425 kts | 321° |
| 2026-04-28 00:09 | -30.31187 | -61.60496 | 34101 ft | 425 kts | 321° |
| 2026-04-28 00:09 | -30.26207 | -61.64149 | 34097 ft | 424 kts | 321° |
| 2026-04-28 00:10 | -30.21247 | -61.67781 | 34100 ft | 425 kts | 322° |
| 2026-04-28 00:10 | -30.16239 | -61.71447 | 34090 ft | 425 kts | 322° |
| 2026-04-28 00:11 | -30.11241 | -61.75101 | 34100 ft | 425 kts | 322° |
| 2026-04-28 00:11 | -30.06217 | -61.78769 | 34094 ft | 425 kts | 322° |
| 2026-04-28 00:12 | -30.01242 | -61.82397 | 34089 ft | 424 kts | 322° |
| 2026-04-28 00:12 | -29.96230 | -61.86050 | 34102 ft | 425 kts | 322° |
| 2026-04-28 00:13 | -29.91246 | -61.89672 | 34094 ft | 424 kts | 322° |
| 2026-04-28 00:13 | -29.86192 | -61.93209 | 34091 ft | 426 kts | 325° |
| 2026-04-28 00:14 | -29.80953 | -61.96451 | 34098 ft | 427 kts | 326° |
| 2026-04-28 00:14 | -29.75733 | -61.99670 | 34089 ft | 428 kts | 326° |
| 2026-04-28 00:15 | -29.70461 | -62.02919 | 34089 ft | 428 kts | 326° |
| 2026-04-28 00:15 | -29.65244 | -62.06129 | 34083 ft | 427 kts | 326° |
| 2026-04-28 00:16 | -29.59997 | -62.09351 | 34094 ft | 426 kts | 325° |
| 2026-04-28 00:16 | -29.54762 | -62.12566 | 34094 ft | 427 kts | 326° |
| 2026-04-28 00:17 | -29.49527 | -62.15774 | 34091 ft | 427 kts | 325° |
| 2026-04-28 00:17 | -29.44267 | -62.18997 | 34082 ft | 426 kts | 325° |
| 2026-04-28 00:18 | -29.39051 | -62.22187 | 34082 ft | 426 kts | 325° |
| 2026-04-28 00:18 | -29.33846 | -62.25369 | 34090 ft | 426 kts | 325° |
| 2026-04-28 00:19 | -29.28602 | -62.28569 | 34091 ft | 425 kts | 325° |
| 2026-04-28 00:19 | -29.23392 | -62.31743 | 34087 ft | 425 kts | 325° |
| 2026-04-28 00:20 | -29.18165 | -62.34927 | 34094 ft | 425 kts | 325° |
| 2026-04-28 00:20 | -29.12937 | -62.38108 | 34088 ft | 424 kts | 325° |
| 2026-04-28 00:21 | -29.07728 | -62.41272 | 34097 ft | 425 kts | 325° |
| 2026-04-28 00:21 | -29.02515 | -62.44440 | 34093 ft | 425 kts | 325° |
| 2026-04-28 00:22 | -28.97290 | -62.47604 | 34090 ft | 424 kts | 325° |
| 2026-04-28 00:22 | -28.92092 | -62.50746 | 34079 ft | 423 kts | 324° |
| 2026-04-28 00:23 | -28.86879 | -62.53904 | 34088 ft | 423 kts | 325° |
| 2026-04-28 00:23 | -28.81860 | -62.57305 | 34080 ft | 415 kts | 319° |
| 2026-04-28 00:24 | -28.77176 | -62.61120 | 34090 ft | 412 kts | 317° |
| 2026-04-28 00:24 | -28.72573 | -62.64936 | 34085 ft | 409 kts | 317° |
| 2026-04-28 00:25 | -28.67960 | -62.68762 | 34093 ft | 411 kts | 317° |
| 2026-04-28 00:25 | -28.63337 | -62.72589 | 34079 ft | 412 kts | 317° |
| 2026-04-28 00:26 | -28.58717 | -62.76410 | 34087 ft | 411 kts | 317° |
| 2026-04-28 00:26 | -28.54085 | -62.80241 | 34077 ft | 409 kts | 317° |
| 2026-04-28 00:27 | -28.49497 | -62.84025 | 34094 ft | 408 kts | 317° |
| 2026-04-28 00:27 | -28.44893 | -62.87823 | 34087 ft | 407 kts | 316° |
| 2026-04-28 00:28 | -28.40339 | -62.91572 | 34091 ft | 405 kts | 316° |
| 2026-04-28 00:28 | -28.35783 | -62.95322 | 34080 ft | 404 kts | 316° |
| 2026-04-28 00:29 | -28.31234 | -62.99061 | 34092 ft | 402 kts | 316° |
| 2026-04-28 00:29 | -28.26707 | -63.02779 | 34094 ft | 402 kts | 316° |
| 2026-04-28 00:30 | -28.22169 | -63.06502 | 34097 ft | 402 kts | 316° |
| 2026-04-28 00:30 | -28.17664 | -63.10191 | 34091 ft | 402 kts | 316° |
| 2026-04-28 00:31 | -28.13118 | -63.13916 | 34082 ft | 400 kts | 316° |
| 2026-04-28 00:31 | -28.08638 | -63.17574 | 34081 ft | 399 kts | 316° |
| 2026-04-28 00:32 | -28.04152 | -63.21239 | 34086 ft | 396 kts | 316° |
| 2026-04-28 00:32 | -27.99682 | -63.24886 | 34097 ft | 396 kts | 315° |
| 2026-04-28 00:33 | -27.95226 | -63.28522 | 34082 ft | 396 kts | 316° |
| 2026-04-28 00:33 | -27.90774 | -63.32147 | 34089 ft | 394 kts | 316° |
| 2026-04-28 00:34 | -27.86305 | -63.35785 | 34097 ft | 394 kts | 315° |
| 2026-04-28 00:34 | -27.81844 | -63.39408 | 34093 ft | 395 kts | 315° |
| 2026-04-28 00:35 | -27.77403 | -63.43014 | 34098 ft | 394 kts | 315° |
| 2026-04-28 00:35 | -27.72942 | -63.46632 | 34085 ft | 393 kts | 315° |
| 2026-04-28 00:36 | -27.68498 | -63.50230 | 34097 ft | 394 kts | 315° |
| 2026-04-28 00:36 | -27.64040 | -63.53836 | 34097 ft | 394 kts | 315° |
| 2026-04-28 00:37 | -27.59606 | -63.57423 | 34092 ft | 393 kts | 315° |
| 2026-04-28 00:37 | -27.55185 | -63.60991 | 34086 ft | 393 kts | 315° |
| 2026-04-28 00:38 | -27.50733 | -63.64584 | 34092 ft | 392 kts | 315° |
| 2026-04-28 00:38 | -27.46294 | -63.68162 | 34093 ft | 392 kts | 316° |
| 2026-04-28 00:39 | -27.41885 | -63.71711 | 34100 ft | 392 kts | 315° |
| 2026-04-28 00:39 | -27.37440 | -63.75288 | 34089 ft | 392 kts | 315° |
| 2026-04-28 00:40 | -27.33007 | -63.78849 | 34101 ft | 391 kts | 315° |
| 2026-04-28 00:40 | -27.28557 | -63.82422 | 34099 ft | 391 kts | 315° |
| 2026-04-28 00:41 | -27.24150 | -63.85956 | 34092 ft | 390 kts | 315° |
| 2026-04-28 00:41 | -27.19715 | -63.89507 | 34090 ft | 391 kts | 315° |
| 2026-04-28 00:42 | -27.15302 | -63.93041 | 34105 ft | 388 kts | 315° |
| 2026-04-28 00:42 | -27.10901 | -63.96560 | 34094 ft | 389 kts | 315° |
| 2026-04-28 00:43 | -27.06467 | -64.00107 | 34096 ft | 390 kts | 315° |
| 2026-04-28 00:43 | -27.02039 | -64.03642 | 34102 ft | 389 kts | 316° |
| 2026-04-28 00:44 | -26.97638 | -64.07148 | 34093 ft | 390 kts | 315° |
| 2026-04-28 00:44 | -26.93237 | -64.10687 | 34088 ft | 389 kts | 315° |
| 2026-04-28 00:45 | -26.88821 | -64.14266 | 34088 ft | 388 kts | 315° |
| 2026-04-28 00:45 | -26.84454 | -64.17796 | 34091 ft | 389 kts | 315° |
| 2026-04-28 00:46 | -26.80052 | -64.21353 | 34095 ft | 389 kts | 315° |
| 2026-04-28 00:46 | -26.75659 | -64.24902 | 34081 ft | 389 kts | 315° |
| 2026-04-28 00:47 | -26.71242 | -64.28465 | 34082 ft | 389 kts | 315° |
| 2026-04-28 00:47 | -26.66846 | -64.32008 | 34082 ft | 389 kts | 315° |
| 2026-04-28 00:48 | -26.62436 | -64.35556 | 34086 ft | 389 kts | 315° |
| 2026-04-28 00:48 | -26.58029 | -64.39095 | 34082 ft | 390 kts | 315° |
| 2026-04-28 00:49 | -26.53597 | -64.42659 | 34071 ft | 391 kts | 315° |
| 2026-04-28 00:49 | -26.49181 | -64.46202 | 34070 ft | 390 kts | 315° |
| 2026-04-28 00:50 | -26.44780 | -64.49731 | 34064 ft | 391 kts | 315° |
| 2026-04-28 00:50 | -26.40358 | -64.53275 | 34069 ft | 390 kts | 315° |
| 2026-04-28 00:51 | -26.35957 | -64.56795 | 34071 ft | 392 kts | 315° |
| 2026-04-28 00:51 | -26.31501 | -64.60358 | 34079 ft | 392 kts | 315° |
| 2026-04-28 00:52 | -26.27083 | -64.63886 | 34071 ft | 391 kts | 315° |
| 2026-04-28 00:52 | -26.22640 | -64.67430 | 34074 ft | 393 kts | 316° |
| 2026-04-28 00:53 | -26.18205 | -64.70970 | 33690 ft | 397 kts | 315° |
| 2026-04-28 00:53 | -26.17591 | -64.71459 | 33523 ft | 398 kts | 316° |
| 2026-04-28 00:53 | -26.15923 | -64.72788 | 32960 ft | 400 kts | 316° |
| 2026-04-28 00:53 | -26.14252 | -64.74118 | 32308 ft | 403 kts | 316° |
| 2026-04-28 00:54 | -26.12589 | -64.75446 | 31551 ft | 408 kts | 316° |
| 2026-04-28 00:54 | -26.10283 | -64.77285 | 30703 ft | 410 kts | 316° |
| 2026-04-28 00:54 | -26.09382 | -64.78001 | 30387 ft | 410 kts | 316° |
| 2026-04-28 00:54 | -26.07518 | -64.79481 | 29763 ft | 410 kts | 317° |
| 2026-04-28 00:55 | -26.05456 | -64.81120 | 29080 ft | 410 kts | 317° |
| 2026-04-28 00:55 | -26.03150 | -64.82951 | 28293 ft | 412 kts | 317° |
| 2026-04-28 00:55 | -26.00959 | -64.84692 | 27525 ft | 413 kts | 317° |
| 2026-04-28 00:55 | -25.99415 | -64.85921 | 26925 ft | 416 kts | 317° |
| 2026-04-28 00:56 | -25.97934 | -64.87099 | 26363 ft | 417 kts | 318° |
| 2026-04-28 00:56 | -25.95801 | -64.88789 | 25815 ft | 414 kts | 318° |
| 2026-04-28 00:56 | -25.93559 | -64.90562 | 25232 ft | 410 kts | 318° |
| 2026-04-28 00:56 | -25.91263 | -64.92379 | 24654 ft | 407 kts | 318° |
| 2026-04-28 00:57 | -25.88954 | -64.94207 | 24071 ft | 404 kts | 319° |
| 2026-04-28 00:57 | -25.86669 | -64.96016 | 23527 ft | 400 kts | 319° |
| 2026-04-28 00:57 | -25.84433 | -64.97787 | 22987 ft | 397 kts | 319° |
| 2026-04-28 00:57 | -25.82668 | -64.99182 | 22527 ft | 396 kts | 319° |
| 2026-04-28 00:58 | -25.80611 | -65.00813 | 21999 ft | 394 kts | 319° |
| 2026-04-28 00:58 | -25.79049 | -65.02048 | 21610 ft | 392 kts | 319° |
| 2026-04-28 00:58 | -25.76844 | -65.03793 | 21055 ft | 390 kts | 320° |
| 2026-04-28 00:58 | -25.74647 | -65.05529 | 20508 ft | 387 kts | 320° |
| 2026-04-28 00:59 | -25.72475 | -65.07243 | 19975 ft | 385 kts | 320° |
| 2026-04-28 00:59 | -25.70258 | -65.08953 | 19349 ft | 385 kts | 322° |
| 2026-04-28 00:59 | -25.68004 | -65.10507 | 18769 ft | 384 kts | 325° |
| 2026-04-28 00:59 | -25.65711 | -65.12009 | 18252 ft | 382 kts | 326° |
| 2026-04-28 01:00 | -25.63430 | -65.13500 | 17731 ft | 380 kts | 326° |
| 2026-04-28 01:00 | -25.61157 | -65.14986 | 17170 ft | 379 kts | 326° |
| 2026-04-28 01:00 | -25.58898 | -65.16463 | 16587 ft | 379 kts | 327° |
| 2026-04-28 01:00 | -25.56628 | -65.17943 | 15971 ft | 378 kts | 327° |
| 2026-04-28 01:01 | -25.54341 | -65.19434 | 15395 ft | 377 kts | 327° |
| 2026-04-28 01:01 | -25.52094 | -65.20900 | 14858 ft | 375 kts | 328° |
| 2026-04-28 01:01 | -25.49874 | -65.22347 | 14300 ft | 374 kts | 328° |
| 2026-04-28 01:01 | -25.47622 | -65.23816 | 13752 ft | 374 kts | 329° |
| 2026-04-28 01:02 | -25.45372 | -65.25281 | 13140 ft | 374 kts | 329° |
| 2026-04-28 01:02 | -25.43148 | -65.26726 | 12589 ft | 373 kts | 329° |
| 2026-04-28 01:02 | -25.40906 | -65.28183 | 12142 ft | 367 kts | 329° |
| 2026-04-28 01:02 | -25.38751 | -65.29583 | 11863 ft | 355 kts | 329° |
| 2026-04-28 01:03 | -25.36641 | -65.30955 | 11708 ft | 341 kts | 329° |
| 2026-04-28 01:03 | -25.34645 | -65.32251 | 11510 ft | 331 kts | 329° |
| 2026-04-28 01:03 | -25.32674 | -65.33531 | 11296 ft | 319 kts | 329° |
| 2026-04-28 01:03 | -25.30816 | -65.34737 | 11176 ft | 305 kts | 329° |
| 2026-04-28 01:04 | -25.29020 | -65.35902 | 11066 ft | 293 kts | 329° |
| 2026-04-28 01:04 | -25.27288 | -65.37026 | 10812 ft | 287 kts | 329° |
| 2026-04-28 01:04 | -25.25565 | -65.38145 | 10578 ft | 281 kts | 330° |
| 2026-04-28 01:04 | -25.23912 | -65.39217 | 10254 ft | 275 kts | 330° |
| 2026-04-28 01:05 | -25.22265 | -65.40284 | 9944 ft | 268 kts | 330° |
| 2026-04-28 01:05 | -25.20692 | -65.41304 | 9666 ft | 262 kts | 330° |
| 2026-04-28 01:05 | -25.19134 | -65.42313 | 9412 ft | 257 kts | 330° |
| 2026-04-28 01:05 | -25.17609 | -65.43301 | 9183 ft | 251 kts | 330° |
| 2026-04-28 01:06 | -25.16112 | -65.44271 | 8956 ft | 246 kts | 330° |
| 2026-04-28 01:06 | -25.14649 | -65.45223 | 8660 ft | 244 kts | 330° |
| 2026-04-28 01:06 | -25.13190 | -65.46176 | 8371 ft | 242 kts | 330° |
| 2026-04-28 01:06 | -25.11735 | -65.47125 | 8077 ft | 241 kts | 331° |
| 2026-04-28 01:07 | -25.10289 | -65.48070 | 7768 ft | 239 kts | 331° |
| 2026-04-28 01:07 | -25.08878 | -65.48989 | 7491 ft | 238 kts | 331° |
| 2026-04-28 01:07 | -25.07434 | -65.49928 | 7181 ft | 237 kts | 331° |
| 2026-04-28 01:07 | -25.06028 | -65.50844 | 6880 ft | 234 kts | 331° |
| 2026-04-28 01:08 | -25.04682 | -65.51720 | 6856 ft | 216 kts | 331° |
| 2026-04-28 01:08 | -25.03349 | -65.52324 | 6740 ft | 198 kts | 354° |
| 2026-04-28 01:08 | -25.02058 | -65.52264 | 6716 ft | 174 kts | 9° |
| 2026-04-28 01:08 | -25.00925 | -65.52023 | 6719 ft | 161 kts | 13° |
| 2026-04-28 01:09 | -24.99823 | -65.51756 | 6578 ft | 159 kts | 13° |
| 2026-04-28 01:09 | -24.98750 | -65.51504 | 6348 ft | 157 kts | 13° |
| 2026-04-28 01:09 | -24.97673 | -65.51261 | 6141 ft | 157 kts | 12° |
| 2026-04-28 01:09 | -24.96614 | -65.51028 | 5938 ft | 156 kts | 11° |
| 2026-04-28 01:10 | -24.95540 | -65.50803 | 5715 ft | 155 kts | 9° |
| 2026-04-28 01:10 | -24.94471 | -65.50590 | 5480 ft | 154 kts | 9° |
| 2026-04-28 01:10 | -24.93434 | -65.50350 | 5248 ft | 153 kts | 12° |
| 2026-04-28 01:10 | -24.92383 | -65.50083 | 5079 ft | 153 kts | 11° |
| 2026-04-28 01:11 | -24.91326 | -65.49870 | 4920 ft | 152 kts | 9° |
| 2026-04-28 01:11 | -24.90281 | -65.49676 | 4762 ft | 152 kts | 12° |
| 2026-04-28 01:11 | -24.89238 | -65.49436 | 4575 ft | 152 kts | 13° |
| 2026-04-28 01:11 | -24.88205 | -65.49206 | 4297 ft | 150 kts | 12° |
| 2026-04-28 01:12 | -24.87178 | -65.48975 | 4140 ft | 149 kts | 12° |
| 2026-04-28 01:12 | -24.86221 | -65.48763 | 4080 ft | 107 kts | 10° |
| 2026-04-28 01:12 | -24.85745 | -65.48656 | 4071 ft | 52 kts | 11° |
| 2026-04-28 01:12 | -24.85464 | -65.48595 | 4067 ft | 35 kts | 11° |
| 2026-04-28 01:13 | -24.85229 | -65.48547 | 4062 ft | 33 kts | 10° |
| 2026-04-28 01:13 | -24.84819 | -65.48460 | 4056 ft | 20 kts | 10° |
| 2026-04-28 01:13 | -24.84683 | -65.48414 | 4053 ft | 20 kts | 39° |
| 2026-04-28 01:14 | -24.84591 | -65.48281 | 4046 ft | 22 kts | 66° |
| 2026-04-28 01:14 | -24.84549 | -65.48144 | 4040 ft | 11 kts | 75° |
| 2026-04-28 01:14 | -24.84524 | -65.48044 | 4036 ft | 15 kts | 73° |
| 2026-04-28 01:14 | -24.84485 | -65.47929 | 4032 ft | 14 kts | 68° |
| 2026-04-28 01:15 | -24.84476 | -65.47905 | 4031 ft | 0 kts | 68° |